首页
METAR-TAF:

METAR-TAF

机场 :

班吉-姆波科国际机场

班基, 中非共和国

纬度: 04-24N, 经度: 018-31E, 海拔: 365米

当前天气观测

该预报发布于29分钟前的21:00 UTC
静风
温度 26°C
湿度 94%
气压 1009 hPa
能見度: 6000
少量云层高于1000英尺
少量云层高于3300英尺, 积雨云.
雷暴

METAR: FEFF 222100Z 00000KT 6000 TS FEW010 FEW033CB 26/25 Q1009 NOSIG

时间: 22:29 (21:29 UTC)

预报

该预报发布于4小时和29分钟前的17:00 UTC
预报有效从22日的 18点(UTC)到 23日的 24点(UTC)
风速2节,风向多变
能見度: 8000
少量云层高于1300英尺
少量云层高于3300英尺, 积雨云.
雷暴
成为
从 22日的 20点(UTC)到 22日的 21点(UTC)
几率 30%
从 23日的 03点(UTC)到 23日的 07点(UTC)
能見度: 3000
多云层高于400英尺
轻雾

TAF: FEFF 221700Z 2218/2324 VRB02KT 8000 TS FEW013 FEW033CB BECMG 2220/2221 NSW PROB30 2303/2307 3000 BR BKN004

超过4000个机场的气象观测和天气预报(METAR&TAF报告)。

可查询的气象台以黄色和红色小点在地图上表示。

将鼠标移到小点上方,可查看气象台名称。

然后点击查看天气观测和预报。

如需切换地图:点击带黑十字的绿色按钮放大地图;点击带横线的绿色按钮缩小地图;或者点击绿色箭头查看邻近地区的地图。


METAR-TAF: